Time;durP1;ratioP1;P1;durP2;ratioP2;P2;SDS_P1;SDS_P2;PMS_P1;PMS_P2;Temp;Humidity;BMP_temperature;BMP_pressure;BME280_temperature;BME280_humidity;BME280_pressure;Samples;Min_cycle;Max_cycle;Signal;HPM_P1;HPM_P2
2022/04/09 00:00:34;;;;;;;12.63;2.90;;;7.00;99.90;;;;;;5016288;28;20026;-91
2022/04/09 00:03:00;;;;;;;16.63;2.80;;;7.00;99.90;;;;;;5016020;28;20021;-90
2022/04/09 00:05:26;;;;;;;17.35;4.45;;;6.90;99.90;;;;;;5015763;28;20524;-90
2022/04/09 00:07:52;;;;;;;19.00;3.10;;;6.90;99.90;;;;;;4999955;28;20034;-90
2022/04/09 00:10:18;;;;;;;13.15;2.92;;;6.90;99.90;;;;;;4983700;28;20029;-92
2022/04/09 00:12:46;;;;;;;12.43;2.25;;;6.90;99.90;;;;;;4999858;28;20389;-91
2022/04/09 00:15:12;;;;;;;18.63;2.63;;;6.90;99.90;;;;;;5017057;28;20022;-91
2022/04/09 00:17:39;;;;;;;13.88;2.95;;;6.80;99.90;;;;;;5022558;28;20030;-91
2022/04/09 00:20:06;;;;;;;13.15;2.72;;;6.80;99.90;;;;;;5032696;28;20056;-89
2022/04/09 00:22:33;;;;;;;9.23;2.55;;;6.80;99.90;;;;;;5016398;28;20029;-92
2022/04/09 00:24:59;;;;;;;11.48;2.47;;;6.80;99.90;;;;;;5016863;28;20081;-91
2022/04/09 00:27:24;;;;;;;13.55;2.50;;;6.80;99.90;;;;;;5033367;28;20018;-92
2022/04/09 00:29:50;;;;;;;15.18;2.28;;;6.70;99.90;;;;;;5008342;28;20132;-92
2022/04/09 00:32:15;;;;;;;10.93;2.53;;;6.70;99.90;;;;;;4984684;28;20117;-91
2022/04/09 00:34:41;;;;;;;13.77;2.42;;;6.70;99.90;;;;;;4983690;28;20030;-90
2022/04/09 00:37:07;;;;;;;12.40;3.50;;;6.60;99.90;;;;;;4983373;28;20152;-91
2022/04/09 00:39:36;;;;;;;12.52;2.42;;;6.70;99.90;;;;;;4999146;28;20113;-90
2022/04/09 00:42:02;;;;;;;15.05;2.75;;;6.60;99.90;;;;;;4982052;28;20116;-90
2022/04/09 00:44:28;;;;;;;13.73;2.63;;;6.60;99.90;;;;;;4999818;28;20128;-91
2022/04/09 00:46:54;;;;;;;15.02;3.00;;;6.60;99.90;;;;;;4982969;28;20111;-91
2022/04/09 00:49:20;;;;;;;15.85;3.22;;;6.60;99.90;;;;;;4983074;28;20034;-91
2022/04/09 00:51:48;;;;;;;10.95;2.60;;;6.50;99.90;;;;;;5016409;28;20417;-91
2022/04/09 00:54:14;;;;;;;15.90;2.42;;;6.50;99.90;;;;;;5000247;28;20096;-93
2022/04/09 00:56:41;;;;;;;18.88;2.95;;;6.50;99.90;;;;;;5016158;28;20017;-91
2022/04/09 00:59:11;;;;;;;12.85;2.35;;;6.50;99.90;;;;;;5001646;28;20056;-92
2022/04/09 01:01:39;;;;;;;14.38;2.53;;;6.50;99.90;;;;;;4987925;28;20026;-91
2022/04/09 01:04:07;;;;;;;14.65;2.40;;;6.40;99.90;;;;;;5010919;28;20034;-90
2022/04/09 01:06:38;;;;;;;12.15;2.80;;;6.50;99.90;;;;;;4999157;28;20470;-91
2022/04/09 01:09:05;;;;;;;12.43;2.45;;;6.40;99.90;;;;;;5014872;28;20521;-91
2022/04/09 01:11:32;;;;;;;15.15;3.00;;;6.40;99.90;;;;;;4998831;28;20543;-91
2022/04/09 01:13:58;;;;;;;19.27;3.38;;;6.40;99.90;;;;;;5014520;28;20022;-91
2022/04/09 01:16:28;;;;;;;16.38;2.90;;;6.40;99.90;;;;;;5014203;28;20026;-91
2022/04/09 01:18:55;;;;;;;14.98;2.28;;;6.30;99.90;;;;;;4999197;28;20030;-91
2022/04/09 01:21:24;;;;;;;10.85;2.25;;;6.30;99.90;;;;;;5014891;28;20473;-90
2022/04/09 01:23:50;;;;;;;12.30;2.63;;;6.30;99.90;;;;;;5015158;28;20029;-90
2022/04/09 01:26:16;;;;;;;13.23;2.30;;;6.20;99.90;;;;;;5014653;28;20018;-90
2022/04/09 01:28:43;;;;;;;10.13;2.47;;;6.20;99.90;;;;;;4981505;28;20054;-91
2022/04/09 01:31:09;;;;;;;9.60;2.08;;;6.20;99.90;;;;;;5014302;28;20052;-90
2022/04/09 01:33:35;;;;;;;16.23;3.30;;;6.20;99.90;;;;;;4997936;28;20389;-91
2022/04/09 01:36:00;;;;;;;12.45;2.95;;;6.20;99.90;;;;;;4998161;28;20032;-92
2022/04/09 01:38:26;;;;;;;11.30;2.35;;;6.10;99.90;;;;;;5014214;28;20112;-90
2022/04/09 01:40:54;;;;;;;11.35;2.42;;;6.10;99.90;;;;;;5014158;28;20022;-89
2022/04/09 01:43:22;;;;;;;13.43;3.20;;;6.10;99.90;;;;;;4981930;28;20026;-90
2022/04/09 01:45:48;;;;;;;13.80;2.00;;;6.10;99.90;;;;;;5013801;28;20029;-90
2022/04/09 01:48:14;;;;;;;12.38;2.80;;;6.10;99.90;;;;;;4997658;28;20405;-90
2022/04/09 01:50:43;;;;;;;9.18;1.90;;;6.00;99.90;;;;;;4981674;28;20065;-92
2022/04/09 01:53:09;;;;;;;14.65;2.47;;;6.00;99.90;;;;;;4997719;28;20030;-90
2022/04/09 01:58:38;;;;;;;13.65;2.10;;;6.00;99.90;;;;;;5015773;28;20045;-91
2022/04/09 02:01:06;;;;;;;9.80;2.10;;;6.00;99.90;;;;;;4997473;28;20030;-90
2022/04/09 02:03:32;;;;;;;11.07;2.38;;;6.00;99.90;;;;;;4997642;28;20026;-91
2022/04/09 02:05:58;;;;;;;13.95;2.13;;;6.00;99.90;;;;;;4997963;28;20090;-92
2022/04/09 02:08:24;;;;;;;14.43;2.50;;;6.00;99.90;;;;;;4981310;28;20053;-91
2022/04/09 02:10:50;;;;;;;15.18;2.88;;;6.00;99.90;;;;;;4982022;28;20511;-91
2022/04/09 02:13:19;;;;;;;14.07;2.28;;;6.00;99.90;;;;;;4997304;28;20025;-90
2022/04/09 02:15:45;;;;;;;13.73;2.15;;;6.00;99.90;;;;;;4998021;28;20037;-92
2022/04/09 02:18:11;;;;;;;14.52;2.10;;;6.00;99.90;;;;;;4982233;28;20041;-91
2022/04/09 02:20:36;;;;;;;9.18;1.88;;;6.00;99.90;;;;;;4981253;28;20037;-90
2022/04/09 02:23:13;;;;;;;12.65;2.70;;;6.00;99.90;;;;;;4997159;28;20475;-91
2022/04/09 02:25:38;;;;;;;11.18;2.13;;;6.00;99.90;;;;;;4997087;28;20022;-90
2022/04/09 02:28:04;;;;;;;8.30;1.70;;;6.00;99.90;;;;;;5000474;28;20450;-90
2022/04/09 02:30:30;;;;;;;12.73;2.03;;;6.00;99.90;;;;;;5001277;28;20053;-90
2022/04/09 02:32:56;;;;;;;11.32;1.90;;;6.00;99.90;;;;;;5001227;28;20061;-90
2022/04/09 02:35:28;;;;;;;7.30;1.52;;;6.00;99.90;;;;;;5017696;28;20030;-90
2022/04/09 02:37:53;;;;;;;6.13;1.70;;;6.00;99.90;;;;;;5017533;28;20026;-91
2022/04/09 02:40:20;;;;;;;8.20;1.20;;;6.00;99.90;;;;;;5017282;28;20026;-91
2022/04/09 02:42:46;;;;;;;6.93;1.20;;;6.00;99.90;;;;;;5017486;28;20352;-92
2022/04/09 02:45:12;;;;;;;7.95;1.25;;;6.00;99.90;;;;;;5001266;28;20037;-90
2022/04/09 02:47:44;;;;;;;7.93;1.83;;;6.00;99.90;;;;;;5001198;28;20030;-90
2022/04/09 02:50:10;;;;;;;7.38;1.50;;;6.10;99.90;;;;;;4984925;28;20108;-90
2022/04/09 02:52:38;;;;;;;5.97;1.60;;;6.10;99.90;;;;;;4984814;28;20034;-90
2022/04/09 02:55:05;;;;;;;7.50;1.50;;;6.10;99.90;;;;;;5000657;28;20026;-89
2022/04/09 02:57:31;;;;;;;7.28;1.48;;;6.10;99.90;;;;;;5016642;28;20030;-90
2022/04/09 02:59:57;;;;;;;7.95;2.25;;;6.10;99.90;;;;;;4985054;28;20054;-91
2022/04/09 03:02:23;;;;;;;7.47;1.35;;;6.00;99.90;;;;;;4984589;28;20074;-92
2022/04/09 03:04:49;;;;;;;9.45;2.47;;;6.00;99.90;;;;;;4984430;28;20362;-92
2022/04/09 03:07:15;;;;;;;6.03;1.38;;;6.00;99.90;;;;;;5000615;28;20116;-91
2022/04/09 03:09:40;;;;;;;12.00;1.95;;;6.00;99.90;;;;;;4984517;28;20120;-90
2022/04/09 03:12:06;;;;;;;7.30;1.30;;;6.00;99.90;;;;;;4984597;28;20030;-91
2022/04/09 03:15:11;;;;;;;7.00;1.50;;;6.00;99.90;;;;;;4984843;28;20113;-91
2022/04/09 03:17:36;;;;;;;6.72;1.58;;;6.00;99.90;;;;;;5017728;28;20026;-92
2022/04/09 03:20:03;;;;;;;11.68;1.77;;;6.00;99.90;;;;;;4984606;28;20026;-93
2022/04/09 03:22:29;;;;;;;7.28;1.80;;;6.00;99.90;;;;;;5001353;28;20029;-91
2022/04/09 03:24:59;;;;;;;7.35;1.50;;;6.00;99.90;;;;;;5000885;28;20026;-91
2022/04/09 03:27:25;;;;;;;10.40;1.77;;;5.90;99.90;;;;;;5000611;28;20026;-91
2022/04/09 03:29:52;;;;;;;9.35;2.03;;;5.90;99.90;;;;;;4984345;28;20413;-90
2022/04/09 03:32:18;;;;;;;9.52;1.83;;;5.80;99.90;;;;;;5016805;28;20048;-89
2022/04/09 03:34:44;;;;;;;10.30;1.70;;;5.90;99.90;;;;;;5016871;28;20057;-90
2022/04/09 03:37:10;;;;;;;9.20;2.08;;;5.90;99.90;;;;;;4983930;28;20041;-91
2022/04/09 03:39:37;;;;;;;10.23;1.50;;;5.90;99.90;;;;;;5015453;28;20025;-92
2022/04/09 03:42:04;;;;;;;6.60;1.50;;;5.80;99.90;;;;;;5015887;28;20051;-89
2022/04/09 03:44:30;;;;;;;10.60;2.85;;;5.80;99.90;;;;;;4999957;28;20141;-90
2022/04/09 03:47:05;;;;;;;12.02;1.83;;;5.80;99.90;;;;;;4983538;28;20088;-89
2022/04/09 03:49:31;;;;;;;7.68;1.70;;;5.80;99.90;;;;;;5016079;28;20030;-90
2022/04/09 03:51:57;;;;;;;11.20;1.83;;;5.80;99.90;;;;;;4999861;28;20029;-91
2022/04/09 03:54:23;;;;;;;10.70;1.60;;;5.80;99.90;;;;;;4999525;28;20033;-90
2022/04/09 03:56:49;;;;;;;7.47;1.42;;;5.80;99.90;;;;;;5015988;28;20025;-91
2022/04/09 03:59:15;;;;;;;8.68;1.38;;;5.80;99.90;;;;;;5010483;28;20120;-90
2022/04/09 04:01:44;;;;;;;7.60;1.45;;;5.80;99.90;;;;;;5019445;28;20068;-90
2022/04/09 04:04:10;;;;;;;9.75;1.95;;;5.70;99.90;;;;;;5019291;28;20022;-90
2022/04/09 04:06:36;;;;;;;10.50;2.00;;;5.70;99.90;;;;;;5019331;28;20120;-91
2022/04/09 04:09:02;;;;;;;9.68;1.92;;;5.70;99.90;;;;;;5002854;28;20028;-90
2022/04/09 04:11:28;;;;;;;12.60;2.38;;;5.70;99.90;;;;;;5035371;28;20028;-92
2022/04/09 04:13:53;;;;;;;10.02;1.65;;;5.70;99.90;;;;;;5002849;28;20132;-91
2022/04/09 04:16:19;;;;;;;9.98;2.13;;;5.70;99.90;;;;;;5002688;28;20036;-90
2022/04/09 04:18:45;;;;;;;10.18;2.05;;;5.70;99.90;;;;;;5019024;28;20485;-91
2022/04/09 04:21:11;;;;;;;12.07;2.53;;;5.60;99.90;;;;;;5035169;28;20045;-91
2022/04/09 04:23:36;;;;;;;11.98;2.08;;;5.60;99.90;;;;;;5018738;28;20029;-92
2022/04/09 04:26:03;;;;;;;10.73;1.63;;;5.60;99.90;;;;;;5035151;28;20478;-90
2022/04/09 04:28:29;;;;;;;9.35;1.70;;;5.60;99.90;;;;;;5034954;28;20017;-90
2022/04/09 04:30:55;;;;;;;14.88;1.95;;;5.60;99.90;;;;;;5018744;28;20022;-90
2022/04/09 04:33:21;;;;;;;18.50;2.75;;;5.60;99.90;;;;;;5002328;28;20097;-90
2022/04/09 04:35:47;;;;;;;9.73;1.95;;;5.60;99.90;;;;;;5018823;28;20030;-91
2022/04/09 04:38:13;;;;;;;9.38;2.00;;;5.60;99.90;;;;;;5018908;28;20037;-91
2022/04/09 04:40:39;;;;;;;10.32;2.10;;;5.60;99.90;;;;;;5018691;28;20030;-91
2022/04/09 04:43:05;;;;;;;6.97;1.50;;;5.60;99.90;;;;;;5018777;28;20022;-90
2022/04/09 04:45:31;;;;;;;12.23;2.33;;;5.60;99.90;;;;;;5018874;28;20503;-90
2022/04/09 04:47:57;;;;;;;13.45;2.03;;;5.60;99.90;;;;;;5018682;28;20025;-90
2022/04/09 04:50:23;;;;;;;9.23;1.65;;;5.60;99.90;;;;;;5033987;28;20029;-92
2022/04/09 04:52:49;;;;;;;8.35;1.40;;;5.60;99.90;;;;;;5036110;28;20056;-91
2022/04/09 04:55:15;;;;;;;10.32;1.73;;;5.60;99.90;;;;;;5034870;28;20034;-92
2022/04/09 04:57:46;;;;;;;9.85;1.63;;;5.60;99.90;;;;;;5035369;28;20025;-90
2022/04/09 05:00:16;;;;;;;8.20;1.77;;;5.70;99.90;;;;;;5034961;28;20112;-91
2022/04/09 05:02:42;;;;;;;9.43;1.45;;;5.70;99.90;;;;;;5019623;28;20110;-91
2022/04/09 05:05:09;;;;;;;7.70;1.73;;;5.70;99.90;;;;;;5019269;28;20480;-90
2022/04/09 05:07:43;;;;;;;12.02;1.63;;;5.70;99.90;;;;;;5019096;28;20025;-90
2022/04/09 05:10:11;;;;;;;5.78;1.40;;;5.70;99.90;;;;;;5018737;28;20022;-90
2022/04/09 05:12:37;;;;;;;8.27;2.05;;;5.70;99.90;;;;;;5036651;28;20025;-89
2022/04/09 05:15:04;;;;;;;7.50;1.40;;;5.70;99.90;;;;;;5035406;28;20017;-90
2022/04/09 05:17:30;;;;;;;13.68;2.65;;;5.70;99.90;;;;;;5019057;28;20030;-90
2022/04/09 05:19:56;;;;;;;8.68;1.55;;;5.70;99.90;;;;;;5018903;28;20025;-90
2022/04/09 05:22:22;;;;;;;8.02;1.98;;;5.70;99.90;;;;;;5035744;28;20029;-90
2022/04/09 05:24:48;;;;;;;7.65;1.42;;;5.70;99.90;;;;;;5045540;28;20044;-91
2022/04/09 05:27:13;;;;;;;11.85;2.03;;;5.60;99.90;;;;;;5019386;28;20018;-90
2022/04/09 05:29:39;;;;;;;8.43;1.77;;;5.60;99.90;;;;;;5021610;28;20084;-91
2022/04/09 05:32:05;;;;;;;8.48;1.70;;;5.70;99.90;;;;;;5039685;28;20048;-90
2022/04/09 05:34:31;;;;;;;15.55;1.95;;;5.70;99.90;;;;;;5019464;28;20025;-90
2022/04/09 05:36:57;;;;;;;8.77;2.00;;;5.70;99.90;;;;;;5032349;28;20369;-90
2022/04/09 05:39:23;;;;;;;11.82;1.92;;;5.70;99.90;;;;;;5032683;28;20026;-90
2022/04/09 05:41:49;;;;;;;11.55;2.13;;;5.70;99.90;;;;;;5035207;28;20052;-90
2022/04/09 05:44:14;;;;;;;14.95;2.42;;;5.70;99.90;;;;;;5033659;28;20030;-90
2022/04/09 05:46:40;;;;;;;9.95;2.40;;;5.60;99.90;;;;;;5030970;28;20057;-91
2022/04/09 05:49:06;;;;;;;10.77;2.63;;;5.70;99.90;;;;;;5032486;28;20120;-90
2022/04/09 05:51:32;;;;;;;11.68;2.05;;;5.70;99.90;;;;;;5017055;28;20029;-89
2022/04/09 05:53:59;;;;;;;15.00;2.95;;;5.70;99.90;;;;;;5020590;28;20105;-90
2022/04/09 05:56:25;;;;;;;8.35;2.08;;;5.70;99.90;;;;;;5038470;28;20029;-90
2022/04/09 05:58:51;;;;;;;11.65;2.17;;;5.80;99.90;;;;;;5020669;28;20017;-90
2022/04/09 06:01:17;;;;;;;9.10;2.17;;;5.80;99.90;;;;;;5032235;28;20037;-90
2022/04/09 06:03:43;;;;;;;11.77;2.10;;;5.80;99.90;;;;;;5038216;28;20002;-91
2022/04/09 06:06:11;;;;;;;10.77;2.10;;;5.80;99.90;;;;;;5019469;28;20116;-90
2022/04/09 06:08:38;;;;;;;12.43;2.05;;;5.90;99.90;;;;;;5017862;28;20034;-91
2022/04/09 06:11:03;;;;;;;10.75;2.03;;;5.90;99.90;;;;;;5017844;28;20037;-93
2022/04/09 06:13:29;;;;;;;11.60;1.95;;;5.90;99.90;;;;;;5018177;28;20025;-91
2022/04/09 06:15:55;;;;;;;9.82;1.92;;;6.00;99.90;;;;;;5001548;28;20144;-92
2022/04/09 06:18:21;;;;;;;9.75;1.88;;;6.00;99.90;;;;;;5000960;28;20075;-90
2022/04/09 06:20:46;;;;;;;11.43;2.15;;;6.00;99.90;;;;;;5017125;28;20097;-91
2022/04/09 06:23:13;;;;;;;15.60;2.42;;;6.10;99.90;;;;;;5033689;28;20049;-91
2022/04/09 06:25:39;;;;;;;10.52;1.80;;;6.10;99.90;;;;;;5017343;28;20052;-91
2022/04/09 06:28:05;;;;;;;10.43;1.45;;;6.10;99.90;;;;;;5001392;28;20112;-90
2022/04/09 06:30:31;;;;;;;8.15;1.50;;;6.10;99.90;;;;;;5018067;28;20132;-91
2022/04/09 06:32:56;;;;;;;10.15;1.40;;;6.10;99.90;;;;;;5018830;28;20484;-89
2022/04/09 06:35:24;;;;;;;9.98;1.70;;;6.10;99.90;;;;;;5000575;28;20038;-91
2022/04/09 06:37:50;;;;;;;8.18;1.83;;;6.10;99.90;;;;;;5033822;28;20497;-91
2022/04/09 06:40:18;;;;;;;7.47;1.60;;;6.10;99.90;;;;;;5033491;28;20195;-91
2022/04/09 06:42:43;;;;;;;12.65;2.08;;;6.10;99.90;;;;;;5020644;23;20092;-91
2022/04/09 06:45:10;;;;;;;9.25;2.40;;;6.10;99.90;;;;;;5019574;28;20021;-92
2022/04/09 06:47:38;;;;;;;12.68;1.98;;;6.10;99.90;;;;;;5003270;28;20469;-90
2022/04/09 06:50:08;;;;;;;7.82;1.70;;;6.10;99.90;;;;;;5017280;28;20033;-91
2022/04/09 06:52:34;;;;;;;12.23;2.08;;;6.20;99.90;;;;;;5017828;28;20175;-91
2022/04/09 06:55:00;;;;;;;12.25;1.98;;;6.20;99.90;;;;;;5017533;28;20025;-91
2022/04/09 06:57:26;;;;;;;12.57;2.10;;;6.30;99.90;;;;;;5017549;28;20113;-91
2022/04/09 06:59:56;;;;;;;16.95;3.03;;;6.30;99.90;;;;;;5001268;28;20030;-92
2022/04/09 07:02:22;;;;;;;12.98;2.15;;;6.30;99.90;;;;;;5034342;28;20018;-90
2022/04/09 07:05:05;;;;;;;13.63;2.60;;;6.30;99.90;;;;;;5017704;28;20099;-91
2022/04/09 07:07:31;;;;;;;12.88;3.55;;;6.30;99.90;;;;;;5034564;28;20503;-91
2022/04/09 07:10:09;;;;;;;14.50;2.40;;;6.40;99.90;;;;;;5033620;28;20022;-91
2022/04/09 07:12:36;;;;;;;11.48;2.22;;;6.50;99.90;;;;;;5033759;28;20068;-92
2022/04/09 07:15:02;;;;;;;16.40;2.30;;;6.50;99.90;;;;;;5036584;28;20089;-90
2022/04/09 07:17:29;;;;;;;10.90;2.40;;;6.50;99.90;;;;;;5037381;28;20025;-91
2022/04/09 07:19:59;;;;;;;11.50;2.10;;;6.60;99.90;;;;;;5038492;28;20434;-91
2022/04/09 07:22:25;;;;;;;17.45;3.28;;;6.70;99.90;;;;;;5020816;28;20095;-92
2022/04/09 07:24:51;;;;;;;16.13;2.65;;;6.70;99.90;;;;;;5036899;28;20017;-91
2022/04/09 07:27:17;;;;;;;14.25;2.15;;;6.80;99.90;;;;;;5036879;28;20053;-91
2022/04/09 07:29:43;;;;;;;15.68;3.40;;;6.90;99.90;;;;;;5003930;28;20075;-91
2022/04/09 07:32:09;;;;;;;18.40;3.28;;;6.90;99.90;;;;;;5036878;28;20507;-91
2022/04/09 07:34:35;;;;;;;20.15;3.00;;;7.00;99.90;;;;;;5003954;28;20041;-93
2022/04/09 07:37:00;;;;;;;14.00;3.00;;;7.10;99.90;;;;;;5020915;28;20028;-89
2022/04/09 07:39:26;;;;;;;11.15;2.92;;;7.20;99.90;;;;;;5020645;28;20034;-91
2022/04/09 07:41:52;;;;;;;12.48;3.35;;;7.30;99.90;;;;;;5003764;28;20054;-90
2022/04/09 07:44:17;;;;;;;12.55;2.85;;;7.40;99.90;;;;;;5004413;28;20034;-90
2022/04/09 07:46:43;;;;;;;8.70;1.98;;;7.40;99.90;;;;;;5004564;28;20469;-89
2022/04/09 07:49:09;;;;;;;5.43;1.30;;;7.40;99.90;;;;;;5020925;28;20076;-93
2022/04/09 07:51:34;;;;;;;5.35;1.25;;;7.40;99.90;;;;;;5022701;28;20049;-91
2022/04/09 07:54:01;;;;;;;6.25;1.60;;;7.40;99.90;;;;;;5004049;28;20037;-91
2022/04/09 07:56:27;;;;;;;5.05;1.20;;;7.40;99.90;;;;;;5004193;28;20029;-91
2022/04/09 07:58:52;;;;;;;6.65;1.52;;;7.30;99.90;;;;;;5020400;28;20026;-90
2022/04/09 08:01:18;;;;;;;5.15;1.23;;;7.30;99.90;;;;;;5031589;28;20033;-90
2022/04/09 08:03:44;;;;;;;3.67;1.08;;;7.30;99.90;;;;;;5046793;28;20021;-90
2022/04/09 08:06:10;;;;;;;3.60;0.85;;;7.30;99.90;;;;;;5034973;28;20025;-92
2022/04/09 08:08:36;;;;;;;1.38;0.80;;;7.20;99.90;;;;;;5019248;28;20043;-90
2022/04/09 08:11:02;;;;;;;2.15;0.77;;;7.30;99.90;;;;;;5036437;28;20040;-90
2022/04/09 08:13:27;;;;;;;3.45;0.82;;;7.30;99.90;;;;;;5051040;28;20021;-89
2022/04/09 08:15:53;;;;;;;8.82;1.20;;;7.40;99.90;;;;;;5021455;28;20029;-89
2022/04/09 08:18:19;;;;;;;10.15;1.40;;;7.50;99.90;;;;;;5025532;28;20032;-90
2022/04/09 08:20:44;;;;;;;8.90;1.45;;;7.60;99.90;;;;;;5003616;28;20044;-89
2022/04/09 08:23:10;;;;;;;9.52;1.90;;;7.70;99.90;;;;;;5004016;28;20481;-89
2022/04/09 08:25:36;;;;;;;8.77;2.13;;;7.80;99.90;;;;;;5019416;28;20029;-88
2022/04/09 08:28:02;;;;;;;11.80;2.25;;;7.90;99.90;;;;;;5019202;28;20026;-88
2022/04/09 08:30:29;;;;;;;9.63;1.60;;;8.00;99.90;;;;;;5002785;28;20417;-90
2022/04/09 08:32:56;;;;;;;7.32;1.60;;;8.10;99.90;;;;;;5003807;28;20045;-89
2022/04/09 08:35:22;;;;;;;4.53;0.93;;;8.30;99.90;;;;;;5036144;28;20380;-89
2022/04/09 08:37:55;;;;;;;7.53;1.50;;;8.30;99.90;;;;;;5037454;28;20025;-90
2022/04/09 08:40:22;;;;;;;11.82;1.95;;;8.40;99.90;;;;;;5036103;28;20032;-88
2022/04/09 08:42:48;;;;;;;5.38;1.20;;;8.50;99.90;;;;;;5035318;28;20038;-89
2022/04/09 08:45:15;;;;;;;12.35;1.73;;;8.50;99.90;;;;;;5036278;28;20052;-91
2022/04/09 08:47:45;;;;;;;7.07;1.58;;;8.60;99.90;;;;;;5018990;28;20036;-90
2022/04/09 08:50:12;;;;;;;9.38;1.63;;;8.70;99.90;;;;;;5035161;28;20017;-89
2022/04/09 08:52:40;;;;;;;7.57;1.95;;;8.80;99.90;;;;;;5018691;28;20056;-91
2022/04/09 08:55:07;;;;;;;6.70;1.80;;;8.90;99.90;;;;;;5018601;28;20095;-89
2022/04/09 08:57:35;;;;;;;12.48;2.38;;;8.90;99.90;;;;;;5018396;28;20185;-90
2022/04/09 09:00:13;;;;;;;9.95;2.10;;;9.00;99.90;;;;;;5034924;28;20167;-88
2022/04/09 09:02:58;;;;;;;10.23;2.28;;;9.00;99.90;;;;;;5035130;28;20021;-90
2022/04/09 09:05:38;;;;;;;14.07;2.45;;;9.10;99.90;;;;;;5034767;28;20021;-86
2022/04/09 09:08:05;;;;;;;9.35;2.65;;;9.00;99.90;;;;;;5034767;28;20022;-89
2022/04/09 09:10:31;;;;;;;13.50;2.83;;;9.00;99.90;;;;;;5018587;28;20034;-90
2022/04/09 09:13:10;;;;;;;14.35;3.10;;;9.10;99.90;;;;;;5019128;28;20030;-87
2022/04/09 09:15:53;;;;;;;13.52;2.90;;;9.10;99.90;;;;;;5035518;28;20048;-89
2022/04/09 09:18:32;;;;;;;9.65;2.58;;;9.10;99.90;;;;;;5035812;28;20022;-89
2022/04/09 09:21:00;;;;;;;10.32;2.25;;;9.20;99.90;;;;;;5021077;28;20112;-90
2022/04/09 09:23:33;;;;;;;7.75;1.90;;;9.20;99.90;;;;;;5025956;28;20029;-89
2022/04/09 09:26:00;;;;;;;6.57;2.10;;;9.20;99.90;;;;;;5042824;28;20021;-89
2022/04/09 09:28:27;;;;;;;6.55;1.98;;;9.20;99.90;;;;;;5008336;28;20026;-90
2022/04/09 09:30:54;;;;;;;7.63;1.98;;;9.10;99.90;;;;;;5043079;28;20026;-90
2022/04/09 09:33:23;;;;;;;8.25;1.90;;;9.00;99.90;;;;;;5024166;28;20026;-89
2022/04/09 09:35:59;;;;;;;8.20;1.52;;;8.90;99.90;;;;;;5043956;28;20036;-91
2022/04/09 09:38:28;;;;;;;8.05;1.70;;;8.90;99.90;;;;;;5035662;28;20098;-90
2022/04/09 09:40:56;;;;;;;7.75;1.50;;;8.90;99.90;;;;;;5034925;28;20018;-91
2022/04/09 09:43:24;;;;;;;9.32;1.50;;;8.80;99.90;;;;;;5018076;28;20049;-91
2022/04/09 09:45:51;;;;;;;8.02;1.60;;;8.80;99.90;;;;;;5034324;28;20013;-88
2022/04/09 09:48:25;;;;;;;8.65;1.70;;;8.90;99.90;;;;;;5021233;28;20022;-89
2022/04/09 09:50:54;;;;;;;4.75;1.20;;;8.90;99.90;;;;;;5040147;28;20038;-89
2022/04/09 09:53:36;;;;;;;3.33;1.17;;;9.00;99.90;;;;;;5037703;28;20443;-89
2022/04/09 09:56:03;;;;;;;9.20;1.30;;;9.10;99.90;;;;;;5039585;28;20032;-91
2022/04/09 09:58:30;;;;;;;7.68;1.10;;;9.20;99.90;;;;;;5027844;28;20029;-90
2022/04/09 10:00:57;;;;;;;5.47;1.00;;;9.30;99.90;;;;;;5044546;28;20048;-90
2022/04/09 10:03:23;;;;;;;5.05;0.90;;;9.30;99.90;;;;;;5041976;28;20039;-90
2022/04/09 10:05:50;;;;;;;7.90;1.42;;;9.40;99.90;;;;;;5038815;28;20009;-89
2022/04/09 10:08:17;;;;;;;4.03;1.08;;;9.40;99.90;;;;;;5029364;28;20110;-89
2022/04/09 10:10:48;;;;;;;4.75;1.25;;;9.30;99.90;;;;;;5040522;28;20030;-90
2022/04/09 10:13:23;;;;;;;2.20;0.80;;;9.30;99.90;;;;;;5043805;28;20041;-90
2022/04/09 10:15:50;;;;;;;0.82;0.30;;;9.20;99.90;;;;;;5023630;28;20120;-91
2022/04/09 10:18:23;;;;;;;1.73;0.35;;;9.10;99.90;;;;;;5044469;28;20010;-90
2022/04/09 10:20:55;;;;;;;1.10;0.40;;;8.90;99.90;;;;;;5046961;28;20025;-91
2022/04/09 10:23:22;;;;;;;0.40;0.30;;;8.80;99.90;;;;;;5043047;28;20022;-90
2022/04/09 10:25:51;;;;;;;3.58;0.70;;;8.70;99.90;;;;;;5026523;28;20500;-92
2022/04/09 10:28:37;;;;;;;5.22;0.68;;;8.60;99.90;;;;;;5042423;28;20017;-90
2022/04/09 10:31:22;;;;;;;3.05;0.68;;;8.60;99.90;;;;;;5025768;28;20018;-90
2022/04/09 10:33:56;;;;;;;3.55;0.60;;;8.60;99.90;;;;;;5039534;28;20025;-90
2022/04/09 10:36:40;;;;;;;5.60;1.15;;;8.60;99.90;;;;;;5019438;28;20033;-89
2022/04/09 10:39:38;;;;;;;5.28;0.90;;;8.70;99.90;;;;;;5035227;28;20025;-89
2022/04/09 10:42:04;;;;;;;3.30;0.70;;;8.70;99.90;;;;;;5019894;28;20062;-89
2022/04/09 10:44:37;;;;;;;3.65;0.98;;;8.70;99.90;;;;;;5017375;28;20108;-90
2022/04/09 10:47:04;;;;;;;3.47;0.80;;;8.80;99.90;;;;;;5033768;28;20144;-90
2022/04/09 10:49:30;;;;;;;6.68;0.75;;;8.80;99.90;;;;;;5038414;28;20022;-90
2022/04/09 10:52:14;;;;;;;3.85;0.70;;;8.80;99.90;;;;;;5038393;28;20030;-89
2022/04/09 10:54:43;;;;;;;5.60;0.82;;;8.70;99.90;;;;;;5038498;28;20081;-90
2022/04/09 10:57:40;;;;;;;2.75;0.60;;;8.70;99.90;;;;;;5021861;28;20411;-88
2022/04/09 11:00:09;;;;;;;4.13;0.80;;;8.70;99.90;;;;;;5038105;28;20026;-89
2022/04/09 11:02:35;;;;;;;3.75;1.05;;;8.60;99.90;;;;;;5005778;28;20423;-89
2022/04/09 11:05:22;;;;;;;4.10;1.02;;;8.70;99.90;;;;;;5004313;28;20032;-89
2022/04/09 11:08:08;;;;;;;4.22;0.80;;;8.90;99.90;;;;;;5037116;28;20484;-91
2022/04/09 11:10:34;;;;;;;9.00;1.30;;;9.00;99.90;;;;;;5021937;28;20038;-90
2022/04/09 11:13:00;;;;;;;5.70;1.10;;;9.20;99.90;;;;;;5023073;28;20025;-91
2022/04/09 11:15:27;;;;;;;5.88;1.13;;;9.30;99.90;;;;;;5020589;28;20025;-92
2022/04/09 11:18:00;;;;;;;6.85;1.35;;;9.50;99.90;;;;;;5037442;28;20049;-91
2022/04/09 11:24:18;;;;;;;4.47;1.10;;;9.60;99.90;;;;;;4988783;28;20033;-91
2022/04/09 11:29:54;;;;;;;7.53;1.20;;;9.40;99.90;;;;;;5027365;28;20022;-91
2022/04/09 11:32:27;;;;;;;6.32;1.20;;;9.30;99.90;;;;;;5037175;28;20048;-92
2022/04/09 11:35:10;;;;;;;6.45;1.70;;;9.20;99.90;;;;;;5036786;28;20029;-91
2022/04/09 11:40:46;;;;;;;6.55;1.50;;;8.90;99.90;;;;;;5037814;28;20029;-91
2022/04/09 11:43:16;;;;;;;7.57;1.30;;;8.80;99.90;;;;;;5036500;28;20489;-90
2022/04/09 11:45:48;;;;;;;6.20;1.10;;;8.80;99.90;;;;;;5038084;28;20041;-90
2022/04/09 11:48:25;;;;;;;4.72;1.45;;;8.70;99.90;;;;;;5021410;28;20036;-90
2022/04/09 11:51:00;;;;;;;7.15;1.25;;;8.70;99.90;;;;;;5049730;28;20013;-88
2022/04/09 11:53:41;;;;;;;;;;;;;;;;;;;;;
2022/04/09 11:56:07;;;;;;;5.97;1.23;;;8.70;99.90;;;;;;5040951;28;20069;-92
2022/04/09 11:58:34;;;;;;;6.82;1.30;;;8.70;99.90;;;;;;5043902;28;20029;-92
2022/04/09 12:01:31;;;;;;;6.55;1.83;;;8.80;99.90;;;;;;5036004;28;20048;-93
2022/04/09 12:11:16;;;;;;;5.22;1.40;;;9.20;99.90;;;;;;4960723;28;20410;-94
2022/04/09 12:13:46;;;;;;;7.22;2.53;;;9.40;99.90;;;;;;4944997;29;20129;-93
2022/04/09 12:16:17;;;;;;;5.38;1.20;;;9.50;99.90;;;;;;4945551;29;20039;-94
2022/04/09 12:18:44;;;;;;;6.22;1.20;;;9.70;99.90;;;;;;5019499;28;20052;-93
2022/04/09 12:21:28;;;;;;;6.28;1.02;;;9.80;99.90;;;;;;5038639;28;20491;-93
2022/04/09 12:24:01;;;;;;;4.25;0.88;;;9.80;99.90;;;;;;5041000;28;20028;-94
2022/04/09 12:26:27;;;;;;;4.50;1.20;;;9.90;99.90;;;;;;5038777;28;20018;-94
2022/04/09 12:29:33;;;;;;;4.07;1.40;;;10.00;99.90;;;;;;5042373;28;20052;-93
2022/04/09 12:32:17;;;;;;;5.60;1.35;;;10.10;99.90;;;;;;5039806;28;20092;-93
2022/04/09 12:34:57;;;;;;;4.25;1.08;;;10.10;99.90;;;;;;5025071;28;20128;-93
2022/04/09 12:37:23;;;;;;;4.82;1.00;;;10.30;99.90;;;;;;5040867;28;20083;-93
2022/04/09 12:40:31;;;;;;;;;;;;;;;;;;;;;
2022/04/09 12:42:57;;;;;;;5.65;1.23;;;10.50;99.90;;;;;;5041373;28;20132;-93
2022/04/09 12:45:27;;;;;;;2.42;0.95;;;10.60;99.90;;;;;;5038322;28;20064;-93
2022/04/09 12:48:00;;;;;;;5.88;1.35;;;10.60;99.90;;;;;;5043167;28;20495;-93
2022/04/09 12:50:30;;;;;;;7.50;1.45;;;10.70;99.90;;;;;;5046390;28;20518;-92
2022/04/09 12:53:04;;;;;;;7.67;1.40;;;10.70;99.90;;;;;;5043628;28;20021;-94
2022/04/09 12:55:31;;;;;;;7.88;1.42;;;10.60;99.90;;;;;;5049195;28;20104;-94
2022/04/09 12:57:57;;;;;;;6.32;1.52;;;10.60;99.90;;;;;;5041753;28;20017;-92
2022/04/09 13:00:25;;;;;;;6.88;1.40;;;10.50;99.90;;;;;;5048229;28;20012;-93
2022/04/09 13:02:51;;;;;;;9.73;1.70;;;10.40;99.90;;;;;;5041927;28;20022;-92
2022/04/09 13:05:18;;;;;;;5.15;1.20;;;10.30;99.90;;;;;;5038246;28;20021;-93
2022/04/09 13:07:45;;;;;;;6.00;2.15;;;10.30;99.90;;;;;;5036842;28;20017;-95
2022/04/09 13:10:12;;;;;;;5.03;1.40;;;10.20;99.90;;;;;;5037191;28;20028;-94
2022/04/09 13:12:39;;;;;;;7.53;1.63;;;10.20;99.90;;;;;;5036745;28;20037;-94
2022/04/09 13:15:05;;;;;;;7.72;1.50;;;10.10;99.90;;;;;;5035567;28;20018;-93
2022/04/09 13:17:34;;;;;;;5.00;1.13;;;10.10;99.90;;;;;;5034560;28;20037;-94
2022/04/09 13:20:09;;;;;;;6.95;1.60;;;10.10;99.90;;;;;;5018530;28;20029;-93
2022/04/09 13:22:36;;;;;;;5.75;1.55;;;10.10;99.90;;;;;;5034721;28;20032;-92